sensor_id;sensor_type;location;lat;lon;timestamp;temperature;humidity
30288;DHT22;17103;48.316;11.558;2023-01-29T00:01:54;10.90;39.10
30288;DHT22;17103;48.316;11.558;2023-01-29T00:04:21;10.70;38.90
30288;DHT22;17103;48.316;11.558;2023-01-29T00:06:46;10.70;39.00
30288;DHT22;17103;48.316;11.558;2023-01-29T00:09:12;10.70;38.90
30288;DHT22;17103;48.316;11.558;2023-01-29T00:11:38;10.80;38.90
30288;DHT22;17103;48.316;11.558;2023-01-29T00:14:04;10.80;38.90
30288;DHT22;17103;48.316;11.558;2023-01-29T00:16:33;11.00;39.00
30288;DHT22;17103;48.316;11.558;2023-01-29T00:19:00;10.80;38.70
30288;DHT22;17103;48.316;11.558;2023-01-29T00:21:28;10.90;38.60
30288;DHT22;17103;48.316;11.558;2023-01-29T00:23:57;10.90;38.60
30288;DHT22;17103;48.316;11.558;2023-01-29T00:26:23;10.90;38.50
30288;DHT22;17103;48.316;11.558;2023-01-29T00:28:48;10.90;38.60
30288;DHT22;17103;48.316;11.558;2023-01-29T00:31:17;10.90;38.50
30288;DHT22;17103;48.316;11.558;2023-01-29T00:33:43;10.80;38.30
30288;DHT22;17103;48.316;11.558;2023-01-29T00:36:11;10.80;38.40
30288;DHT22;17103;48.316;11.558;2023-01-29T00:38:37;10.80;38.30
30288;DHT22;17103;48.316;11.558;2023-01-29T00:41:11;11.10;38.60
30288;DHT22;17103;48.316;11.558;2023-01-29T00:43:56;10.90;38.30
30288;DHT22;17103;48.316;11.558;2023-01-29T00:46:40;10.90;38.40
30288;DHT22;17103;48.316;11.558;2023-01-29T00:49:06;10.90;38.40
30288;DHT22;17103;48.316;11.558;2023-01-29T00:51:32;10.90;38.30
30288;DHT22;17103;48.316;11.558;2023-01-29T00:53:59;10.90;38.20
30288;DHT22;17103;48.316;11.558;2023-01-29T00:56:28;10.90;38.00
30288;DHT22;17103;48.316;11.558;2023-01-29T00:58:54;10.90;37.70
30288;DHT22;17103;48.316;11.558;2023-01-29T01:01:21;10.90;37.90
30288;DHT22;17103;48.316;11.558;2023-01-29T01:04:09;10.90;37.90
30288;DHT22;17103;48.316;11.558;2023-01-29T01:06:41;10.90;37.90
30288;DHT22;17103;48.316;11.558;2023-01-29T01:09:09;10.90;37.70
30288;DHT22;17103;48.316;11.558;2023-01-29T01:11:54;10.40;37.40
30288;DHT22;17103;48.316;11.558;2023-01-29T01:14:20;10.90;37.90
30288;DHT22;17103;48.316;11.558;2023-01-29T01:16:46;10.80;37.80
30288;DHT22;17103;48.316;11.558;2023-01-29T01:19:13;10.80;37.70
30288;DHT22;17103;48.316;11.558;2023-01-29T01:21:40;10.80;37.70
30288;DHT22;17103;48.316;11.558;2023-01-29T01:24:11;10.90;37.80
30288;DHT22;17103;48.316;11.558;2023-01-29T01:26:38;10.80;37.70
30288;DHT22;17103;48.316;11.558;2023-01-29T01:29:04;10.90;37.70
30288;DHT22;17103;48.316;11.558;2023-01-29T01:31:29;10.90;37.70
30288;DHT22;17103;48.316;11.558;2023-01-29T01:33:56;10.90;37.70
30288;DHT22;17103;48.316;11.558;2023-01-29T01:36:22;10.90;37.70
30288;DHT22;17103;48.316;11.558;2023-01-29T01:38:48;10.90;37.60
30288;DHT22;17103;48.316;11.558;2023-01-29T01:41:18;10.90;37.50
30288;DHT22;17103;48.316;11.558;2023-01-29T01:44:04;10.90;37.40
30288;DHT22;17103;48.316;11.558;2023-01-29T01:46:35;10.90;37.20
30288;DHT22;17103;48.316;11.558;2023-01-29T01:49:12;10.90;37.30
30288;DHT22;17103;48.316;11.558;2023-01-29T01:51:44;10.90;37.10
30288;DHT22;17103;48.316;11.558;2023-01-29T01:54:14;10.90;37.10
30288;DHT22;17103;48.316;11.558;2023-01-29T01:56:44;10.90;37.00
30288;DHT22;17103;48.316;11.558;2023-01-29T01:59:16;10.90;37.00
30288;DHT22;17103;48.316;11.558;2023-01-29T02:01:43;10.90;37.00
30288;DHT22;17103;48.316;11.558;2023-01-29T02:04:17;10.90;37.00
30288;DHT22;17103;48.316;11.558;2023-01-29T02:07:04;10.90;37.00
30288;DHT22;17103;48.316;11.558;2023-01-29T02:09:52;10.90;37.00
30288;DHT22;17103;48.316;11.558;2023-01-29T02:12:20;10.90;37.00
30288;DHT22;17103;48.316;11.558;2023-01-29T02:14:46;11.00;37.00
30288;DHT22;17103;48.316;11.558;2023-01-29T02:17:14;11.40;37.30
30288;DHT22;17103;48.316;11.558;2023-01-29T02:23:07;10.90;36.60
30288;DHT22;17103;48.316;11.558;2023-01-29T02:34:06;11.00;36.50
30288;DHT22;17103;48.316;11.558;2023-01-29T02:39:12;11.00;36.50
30288;DHT22;17103;48.316;11.558;2023-01-29T02:44:46;11.00;36.40
30288;DHT22;17103;48.316;11.558;2023-01-29T02:47:33;11.00;36.30
30288;DHT22;17103;48.316;11.558;2023-01-29T03:00:51;10.90;36.20
30288;DHT22;17103;48.316;11.558;2023-01-29T03:03:24;10.90;36.20
30288;DHT22;17103;48.316;11.558;2023-01-29T03:05:53;10.90;36.20
30288;DHT22;17103;48.316;11.558;2023-01-29T03:08:56;10.90;36.10
30288;DHT22;17103;48.316;11.558;2023-01-29T03:11:22;10.90;35.90
30288;DHT22;17103;48.316;11.558;2023-01-29T03:13:54;10.90;36.10
30288;DHT22;17103;48.316;11.558;2023-01-29T03:16:23;11.00;36.10
30288;DHT22;17103;48.316;11.558;2023-01-29T03:18:58;10.90;36.10
30288;DHT22;17103;48.316;11.558;2023-01-29T03:21:32;10.90;36.60
30288;DHT22;17103;48.316;11.558;2023-01-29T03:24:42;10.90;36.50
30288;DHT22;17103;48.316;11.558;2023-01-29T03:27:28;10.90;36.00
30288;DHT22;17103;48.316;11.558;2023-01-29T03:30:16;10.90;35.90
30288;DHT22;17103;48.316;11.558;2023-01-29T03:33:04;10.90;35.80
30288;DHT22;17103;48.316;11.558;2023-01-29T03:35:35;10.90;35.80
30288;DHT22;17103;48.316;11.558;2023-01-29T03:38:06;10.90;35.80
30288;DHT22;17103;48.316;11.558;2023-01-29T03:41:01;10.70;37.70
30288;DHT22;17103;48.316;11.558;2023-01-29T03:46:27;10.90;36.10
30288;DHT22;17103;48.316;11.558;2023-01-29T03:59:57;10.80;35.60
30288;DHT22;17103;48.316;11.558;2023-01-29T04:02:30;10.80;35.50
30288;DHT22;17103;48.316;11.558;2023-01-29T04:05:00;10.80;35.70
30288;DHT22;17103;48.316;11.558;2023-01-29T04:07:28;10.80;35.70
30288;DHT22;17103;48.316;11.558;2023-01-29T04:10:02;10.80;35.70
30288;DHT22;17103;48.316;11.558;2023-01-29T04:12:36;10.80;35.60
30288;DHT22;17103;48.316;11.558;2023-01-29T04:15:05;10.80;35.60
30288;DHT22;17103;48.316;11.558;2023-01-29T04:17:38;10.80;35.40
30288;DHT22;17103;48.316;11.558;2023-01-29T04:20:05;10.80;35.40
30288;DHT22;17103;48.316;11.558;2023-01-29T04:22:33;10.80;35.30
30288;DHT22;17103;48.316;11.558;2023-01-29T04:25:02;10.70;35.20
30288;DHT22;17103;48.316;11.558;2023-01-29T04:30:48;10.70;35.20
30288;DHT22;17103;48.316;11.558;2023-01-29T04:33:33;10.70;35.70
30288;DHT22;17103;48.316;11.558;2023-01-29T04:39:18;10.60;35.20
30288;DHT22;17103;48.316;11.558;2023-01-29T04:41:57;10.60;35.40
30288;DHT22;17103;48.316;11.558;2023-01-29T04:44:46;10.60;35.40
30288;DHT22;17103;48.316;11.558;2023-01-29T04:47:34;10.50;35.50
30288;DHT22;17103;48.316;11.558;2023-01-29T04:50:22;10.50;35.50
30288;DHT22;17103;48.316;11.558;2023-01-29T04:52:58;10.50;35.30
30288;DHT22;17103;48.316;11.558;2023-01-29T04:55:37;10.50;35.40
30288;DHT22;17103;48.316;11.558;2023-01-29T04:58:25;10.50;35.20
30288;DHT22;17103;48.316;11.558;2023-01-29T05:00:53;10.50;35.00
30288;DHT22;17103;48.316;11.558;2023-01-29T05:03:22;10.40;35.10
30288;DHT22;17103;48.316;11.558;2023-01-29T05:05:50;10.40;35.00
30288;DHT22;17103;48.316;11.558;2023-01-29T05:08:21;10.40;35.20
30288;DHT22;17103;48.316;11.558;2023-01-29T05:10:49;10.40;35.00
30288;DHT22;17103;48.316;11.558;2023-01-29T05:13:16;10.30;35.00
30288;DHT22;17103;48.316;11.558;2023-01-29T05:15:51;10.30;35.00
30288;DHT22;17103;48.316;11.558;2023-01-29T05:18:19;10.30;34.90
30288;DHT22;17103;48.316;11.558;2023-01-29T05:20:46;10.20;35.00
30288;DHT22;17103;48.316;11.558;2023-01-29T05:23:20;10.20;35.00
30288;DHT22;17103;48.316;11.558;2023-01-29T05:25:47;10.20;35.00
30288;DHT22;17103;48.316;11.558;2023-01-29T05:28:13;10.20;35.20
30288;DHT22;17103;48.316;11.558;2023-01-29T05:30:44;10.10;35.10
30288;DHT22;17103;48.316;11.558;2023-01-29T05:33:21;10.10;35.10
30288;DHT22;17103;48.316;11.558;2023-01-29T05:35:48;10.10;35.10
30288;DHT22;17103;48.316;11.558;2023-01-29T05:38:14;10.10;35.20
30288;DHT22;17103;48.316;11.558;2023-01-29T05:40:40;11.00;35.90
30288;DHT22;17103;48.316;11.558;2023-01-29T05:43:18;10.10;35.00
30288;DHT22;17103;48.316;11.558;2023-01-29T05:45:57;10.00;34.70
30288;DHT22;17103;48.316;11.558;2023-01-29T05:48:24;10.00;34.70
30288;DHT22;17103;48.316;11.558;2023-01-29T05:50:50;9.90;35.60
30288;DHT22;17103;48.316;11.558;2023-01-29T05:53:16;9.90;35.70
30288;DHT22;17103;48.316;11.558;2023-01-29T05:55:46;9.90;35.70
30288;DHT22;17103;48.316;11.558;2023-01-29T05:58:12;9.90;35.60
30288;DHT22;17103;48.316;11.558;2023-01-29T06:00:39;9.90;35.80
30288;DHT22;17103;48.316;11.558;2023-01-29T06:03:05;9.90;35.50
30288;DHT22;17103;48.316;11.558;2023-01-29T06:05:30;9.90;35.70
30288;DHT22;17103;48.316;11.558;2023-01-29T06:07:56;9.90;35.70
30288;DHT22;17103;48.316;11.558;2023-01-29T06:10:23;9.90;35.70
30288;DHT22;17103;48.316;11.558;2023-01-29T06:12:49;9.80;35.60
30288;DHT22;17103;48.316;11.558;2023-01-29T06:15:15;9.80;35.60
30288;DHT22;17103;48.316;11.558;2023-01-29T06:17:41;10.30;35.20
30288;DHT22;17103;48.316;11.558;2023-01-29T06:20:10;9.80;35.80
30288;DHT22;17103;48.316;11.558;2023-01-29T06:22:36;9.80;35.60
30288;DHT22;17103;48.316;11.558;2023-01-29T06:25:02;9.80;35.70
30288;DHT22;17103;48.316;11.558;2023-01-29T06:27:28;9.90;35.80
30288;DHT22;17103;48.316;11.558;2023-01-29T06:29:53;9.90;35.90
30288;DHT22;17103;48.316;11.558;2023-01-29T06:32:19;9.90;35.90
30288;DHT22;17103;48.316;11.558;2023-01-29T06:34:45;10.00;35.10
30288;DHT22;17103;48.316;11.558;2023-01-29T06:37:11;10.00;35.10
30288;DHT22;17103;48.316;11.558;2023-01-29T06:39:36;10.10;35.20
30288;DHT22;17103;48.316;11.558;2023-01-29T06:42:02;10.10;35.10
30288;DHT22;17103;48.316;11.558;2023-01-29T06:44:28;10.20;35.00
30288;DHT22;17103;48.316;11.558;2023-01-29T06:46:53;10.30;34.90
30288;DHT22;17103;48.316;11.558;2023-01-29T06:49:22;10.30;34.70
30288;DHT22;17103;48.316;11.558;2023-01-29T06:51:49;10.30;34.70
30288;DHT22;17103;48.316;11.558;2023-01-29T06:54:14;10.40;34.60
30288;DHT22;17103;48.316;11.558;2023-01-29T06:56:40;10.40;34.50
30288;DHT22;17103;48.316;11.558;2023-01-29T06:59:06;10.40;34.20
30288;DHT22;17103;48.316;11.558;2023-01-29T07:01:32;10.40;33.80
30288;DHT22;17103;48.316;11.558;2023-01-29T07:03:58;10.40;33.40
30288;DHT22;17103;48.316;11.558;2023-01-29T07:06:30;10.20;33.10
30288;DHT22;17103;48.316;11.558;2023-01-29T07:08:56;10.00;32.60
30288;DHT22;17103;48.316;11.558;2023-01-29T07:11:22;9.80;33.60
30288;DHT22;17103;48.316;11.558;2023-01-29T07:13:48;9.60;33.80
30288;DHT22;17103;48.316;11.558;2023-01-29T07:16:14;9.40;34.00
30288;DHT22;17103;48.316;11.558;2023-01-29T07:18:40;9.20;34.00
30288;DHT22;17103;48.316;11.558;2023-01-29T07:21:06;9.90;34.80
30288;DHT22;17103;48.316;11.558;2023-01-29T07:23:33;8.80;34.30
30288;DHT22;17103;48.316;11.558;2023-01-29T07:26:01;8.80;34.70
30288;DHT22;17103;48.316;11.558;2023-01-29T07:28:27;8.40;34.70
30288;DHT22;17103;48.316;11.558;2023-01-29T07:30:59;9.00;35.40
30288;DHT22;17103;48.316;11.558;2023-01-29T07:33:25;8.00;35.00
30288;DHT22;17103;48.316;11.558;2023-01-29T07:35:51;7.90;35.20
30288;DHT22;17103;48.316;11.558;2023-01-29T07:38:17;7.70;35.40
30288;DHT22;17103;48.316;11.558;2023-01-29T07:40:42;7.60;35.70
30288;DHT22;17103;48.316;11.558;2023-01-29T07:43:08;7.50;35.90
30288;DHT22;17103;48.316;11.558;2023-01-29T07:45:36;7.40;36.10
30288;DHT22;17103;48.316;11.558;2023-01-29T07:48:03;7.30;36.20
30288;DHT22;17103;48.316;11.558;2023-01-29T07:50:35;7.20;36.30
30288;DHT22;17103;48.316;11.558;2023-01-29T07:53:01;7.00;36.40
30288;DHT22;17103;48.316;11.558;2023-01-29T07:55:27;6.90;36.50
30288;DHT22;17103;48.316;11.558;2023-01-29T07:57:57;6.80;36.50
30288;DHT22;17103;48.316;11.558;2023-01-29T08:00:22;6.70;36.50
30288;DHT22;17103;48.316;11.558;2023-01-29T08:02:48;6.60;36.50
30288;DHT22;17103;48.316;11.558;2023-01-29T08:05:14;6.60;36.70
30288;DHT22;17103;48.316;11.558;2023-01-29T08:07:40;6.50;36.90
30288;DHT22;17103;48.316;11.558;2023-01-29T08:10:07;6.40;37.20
30288;DHT22;17103;48.316;11.558;2023-01-29T08:12:34;6.40;37.20
30288;DHT22;17103;48.316;11.558;2023-01-29T08:15:02;6.40;37.30
30288;DHT22;17103;48.316;11.558;2023-01-29T08:17:28;6.30;37.20
30288;DHT22;17103;48.316;11.558;2023-01-29T08:19:57;6.30;37.30
30288;DHT22;17103;48.316;11.558;2023-01-29T08:22:27;6.20;37.40
30288;DHT22;17103;48.316;11.558;2023-01-29T08:25:05;6.10;37.70
30288;DHT22;17103;48.316;11.558;2023-01-29T08:27:50;6.00;37.60
30288;DHT22;17103;48.316;11.558;2023-01-29T08:30:16;6.00;37.60
30288;DHT22;17103;48.316;11.558;2023-01-29T08:32:44;5.90;37.50
30288;DHT22;17103;48.316;11.558;2023-01-29T08:35:16;5.80;37.50
30288;DHT22;17103;48.316;11.558;2023-01-29T08:37:42;5.80;37.80
30288;DHT22;17103;48.316;11.558;2023-01-29T08:40:08;6.30;38.30
30288;DHT22;17103;48.316;11.558;2023-01-29T08:42:35;5.80;38.20
30288;DHT22;17103;48.316;11.558;2023-01-29T08:45:01;5.70;38.30
30288;DHT22;17103;48.316;11.558;2023-01-29T08:47:27;5.70;38.30
30288;DHT22;17103;48.316;11.558;2023-01-29T08:49:53;5.70;38.50
30288;DHT22;17103;48.316;11.558;2023-01-29T08:52:18;5.60;38.40
30288;DHT22;17103;48.316;11.558;2023-01-29T08:54:44;5.60;38.70
30288;DHT22;17103;48.316;11.558;2023-01-29T08:57:10;5.90;38.80
30288;DHT22;17103;48.316;11.558;2023-01-29T08:59:35;5.60;38.40
30288;DHT22;17103;48.316;11.558;2023-01-29T09:02:01;5.50;38.30
30288;DHT22;17103;48.316;11.558;2023-01-29T09:04:30;5.70;38.60
30288;DHT22;17103;48.316;11.558;2023-01-29T09:06:55;5.50;38.80
30288;DHT22;17103;48.316;11.558;2023-01-29T09:09:24;5.40;38.70
30288;DHT22;17103;48.316;11.558;2023-01-29T09:11:50;5.40;38.70
30288;DHT22;17103;48.316;11.558;2023-01-29T09:14:15;5.40;39.40
30288;DHT22;17103;48.316;11.558;2023-01-29T09:16:41;5.40;39.10
30288;DHT22;17103;48.316;11.558;2023-01-29T09:19:08;5.30;39.10
30288;DHT22;17103;48.316;11.558;2023-01-29T09:21:59;5.30;39.20
30288;DHT22;17103;48.316;11.558;2023-01-29T09:24:25;5.20;39.20
30288;DHT22;17103;48.316;11.558;2023-01-29T09:26:56;5.20;39.10
30288;DHT22;17103;48.316;11.558;2023-01-29T09:29:23;5.10;39.30
30288;DHT22;17103;48.316;11.558;2023-01-29T09:31:56;5.00;39.20
30288;DHT22;17103;48.316;11.558;2023-01-29T09:34:31;5.00;39.20
30288;DHT22;17103;48.316;11.558;2023-01-29T09:40:20;5.00;39.20
30288;DHT22;17103;48.316;11.558;2023-01-29T09:43:00;5.00;39.20
30288;DHT22;17103;48.316;11.558;2023-01-29T09:45:48;5.00;39.30
30288;DHT22;17103;48.316;11.558;2023-01-29T09:48:15;4.90;39.30
30288;DHT22;17103;48.316;11.558;2023-01-29T09:50:43;4.90;39.40
30288;DHT22;17103;48.316;11.558;2023-01-29T09:56:04;4.90;39.70
30288;DHT22;17103;48.316;11.558;2023-01-29T09:58:35;4.90;39.70
30288;DHT22;17103;48.316;11.558;2023-01-29T10:01:26;4.70;39.50
30288;DHT22;17103;48.316;11.558;2023-01-29T10:14:28;4.90;39.50
30288;DHT22;17103;48.316;11.558;2023-01-29T10:25:51;4.80;39.60
30288;DHT22;17103;48.316;11.558;2023-01-29T10:28:19;4.80;39.30
30288;DHT22;17103;48.316;11.558;2023-01-29T10:31:01;4.80;39.30
30288;DHT22;17103;48.316;11.558;2023-01-29T10:36:54;4.80;39.60
30288;DHT22;17103;48.316;11.558;2023-01-29T10:40:17;4.80;39.60
30288;DHT22;17103;48.316;11.558;2023-01-29T10:43:53;4.90;39.50
30288;DHT22;17103;48.316;11.558;2023-01-29T10:56:36;5.10;39.20
30288;DHT22;17103;48.316;11.558;2023-01-29T11:01:40;5.10;39.30
30288;DHT22;17103;48.316;11.558;2023-01-29T11:04:12;5.10;39.10
30288;DHT22;17103;48.316;11.558;2023-01-29T11:06:38;5.00;38.90
30288;DHT22;17103;48.316;11.558;2023-01-29T11:09:19;5.10;39.00
30288;DHT22;17103;48.316;11.558;2023-01-29T11:11:57;5.00;38.90
30288;DHT22;17103;48.316;11.558;2023-01-29T11:16:58;4.90;38.80
30288;DHT22;17103;48.316;11.558;2023-01-29T11:19:39;4.90;38.80
30288;DHT22;17103;48.316;11.558;2023-01-29T11:22:24;4.90;38.80
30288;DHT22;17103;48.316;11.558;2023-01-29T11:25:14;4.90;38.90
30288;DHT22;17103;48.316;11.558;2023-01-29T11:28:01;4.90;39.10
30288;DHT22;17103;48.316;11.558;2023-01-29T11:30:37;4.90;39.10
30288;DHT22;17103;48.316;11.558;2023-01-29T11:35:43;5.00;39.20
30288;DHT22;17103;48.316;11.558;2023-01-29T11:38:49;5.00;39.30
30288;DHT22;17103;48.316;11.558;2023-01-29T11:45:44;5.00;38.90
30288;DHT22;17103;48.316;11.558;2023-01-29T11:48:50;5.00;39.00
30288;DHT22;17103;48.316;11.558;2023-01-29T11:52:13;5.00;39.10
30288;DHT22;17103;48.316;11.558;2023-01-29T11:54:56;5.00;39.30
30288;DHT22;17103;48.316;11.558;2023-01-29T11:57:33;5.00;39.30
30288;DHT22;17103;48.316;11.558;2023-01-29T12:02:45;5.10;39.40
30288;DHT22;17103;48.316;11.558;2023-01-29T12:05:17;5.10;39.20
30288;DHT22;17103;48.316;11.558;2023-01-29T12:07:49;5.10;39.00
30288;DHT22;17103;48.316;11.558;2023-01-29T12:10:36;5.00;38.80
30288;DHT22;17103;48.316;11.558;2023-01-29T12:15:37;5.00;38.80
30288;DHT22;17103;48.316;11.558;2023-01-29T12:18:24;4.90;39.00
30288;DHT22;17103;48.316;11.558;2023-01-29T12:21:00;4.90;39.70
30288;DHT22;17103;48.316;11.558;2023-01-29T12:26:37;4.90;39.20
30288;DHT22;17103;48.316;11.558;2023-01-29T12:29:23;4.90;39.20
30288;DHT22;17103;48.316;11.558;2023-01-29T12:35:02;4.90;39.40
30288;DHT22;17103;48.316;11.558;2023-01-29T12:41:07;4.90;39.10
30288;DHT22;17103;48.316;11.558;2023-01-29T12:44:20;4.90;39.00
30288;DHT22;17103;48.316;11.558;2023-01-29T12:53:47;5.00;39.10
30288;DHT22;17103;48.316;11.558;2023-01-29T13:03:32;5.00;39.20
30288;DHT22;17103;48.316;11.558;2023-01-29T13:06:30;4.90;39.30
30288;DHT22;17103;48.316;11.558;2023-01-29T13:09:02;4.90;39.20
30288;DHT22;17103;48.316;11.558;2023-01-29T13:14:25;4.90;39.50
30288;DHT22;17103;48.316;11.558;2023-01-29T13:17:29;4.90;39.40
30288;DHT22;17103;48.316;11.558;2023-01-29T13:20:25;4.80;39.40
30288;DHT22;17103;48.316;11.558;2023-01-29T13:23:05;4.80;39.60
30288;DHT22;17103;48.316;11.558;2023-01-29T13:25:38;4.80;39.60
30288;DHT22;17103;48.316;11.558;2023-01-29T13:28:04;4.80;39.70
30288;DHT22;17103;48.316;11.558;2023-01-29T13:30:32;4.80;39.80
30288;DHT22;17103;48.316;11.558;2023-01-29T13:33:02;4.80;39.70
30288;DHT22;17103;48.316;11.558;2023-01-29T13:35:40;4.80;39.70
30288;DHT22;17103;48.316;11.558;2023-01-29T13:38:26;4.80;39.90
30288;DHT22;17103;48.316;11.558;2023-01-29T13:41:03;4.80;40.10
30288;DHT22;17103;48.316;11.558;2023-01-29T13:47:10;4.70;40.20
30288;DHT22;17103;48.316;11.558;2023-01-29T13:50:31;4.60;40.20
30288;DHT22;17103;48.316;11.558;2023-01-29T13:59:59;4.50;40.50
30288;DHT22;17103;48.316;11.558;2023-01-29T14:17:17;4.30;41.20
30288;DHT22;17103;48.316;11.558;2023-01-29T14:19:49;4.20;41.20
30288;DHT22;17103;48.316;11.558;2023-01-29T14:22:19;4.20;41.30
30288;DHT22;17103;48.316;11.558;2023-01-29T14:24:54;4.20;41.50
30288;DHT22;17103;48.316;11.558;2023-01-29T14:27:24;4.20;41.50
30288;DHT22;17103;48.316;11.558;2023-01-29T14:29:59;4.20;41.50
30288;DHT22;17103;48.316;11.558;2023-01-29T14:32:27;4.30;41.70
30288;DHT22;17103;48.316;11.558;2023-01-29T14:35:02;4.30;41.60
30288;DHT22;17103;48.316;11.558;2023-01-29T14:37:33;4.30;42.00
30288;DHT22;17103;48.316;11.558;2023-01-29T14:45:35;4.30;41.70
30288;DHT22;17103;48.316;11.558;2023-01-29T14:48:46;4.30;41.80
30288;DHT22;17103;48.316;11.558;2023-01-29T14:52:02;4.40;42.00
30288;DHT22;17103;48.316;11.558;2023-01-29T14:54:58;4.40;42.10
30288;DHT22;17103;48.316;11.558;2023-01-29T14:58:00;4.30;42.10
30288;DHT22;17103;48.316;11.558;2023-01-29T15:01:13;4.30;42.10
30288;DHT22;17103;48.316;11.558;2023-01-29T15:04:48;4.20;42.40
30288;DHT22;17103;48.316;11.558;2023-01-29T15:11:11;4.00;42.30
30288;DHT22;17103;48.316;11.558;2023-01-29T15:19:47;3.90;43.20
30288;DHT22;17103;48.316;11.558;2023-01-29T15:22:26;3.90;42.60
30288;DHT22;17103;48.316;11.558;2023-01-29T15:25:11;3.80;43.30
30288;DHT22;17103;48.316;11.558;2023-01-29T15:27:41;3.80;42.70
30288;DHT22;17103;48.316;11.558;2023-01-29T15:30:14;3.80;42.90
30288;DHT22;17103;48.316;11.558;2023-01-29T15:32:41;3.80;42.90
30288;DHT22;17103;48.316;11.558;2023-01-29T15:40:27;3.70;42.80
30288;DHT22;17103;48.316;11.558;2023-01-29T15:43:11;3.70;42.80
30288;DHT22;17103;48.316;11.558;2023-01-29T15:45:39;3.70;42.80
30288;DHT22;17103;48.316;11.558;2023-01-29T15:48:41;3.70;42.60
30288;DHT22;17103;48.316;11.558;2023-01-29T15:51:21;3.70;42.80
30288;DHT22;17103;48.316;11.558;2023-01-29T16:04:14;3.80;42.80
30288;DHT22;17103;48.316;11.558;2023-01-29T16:07:23;3.80;43.00
30288;DHT22;17103;48.316;11.558;2023-01-29T16:16:38;3.70;43.20
30288;DHT22;17103;48.316;11.558;2023-01-29T16:19:27;3.70;43.50
30288;DHT22;17103;48.316;11.558;2023-01-29T16:22:05;3.70;43.40
30288;DHT22;17103;48.316;11.558;2023-01-29T16:24:35;3.70;43.20
30288;DHT22;17103;48.316;11.558;2023-01-29T16:27:12;3.70;42.90
30288;DHT22;17103;48.316;11.558;2023-01-29T16:29:40;3.70;42.90
30288;DHT22;17103;48.316;11.558;2023-01-29T16:32:12;3.60;42.80
30288;DHT22;17103;48.316;11.558;2023-01-29T16:34:46;3.60;42.70
30288;DHT22;17103;48.316;11.558;2023-01-29T16:37:28;3.60;42.80
30288;DHT22;17103;48.316;11.558;2023-01-29T16:39:55;3.60;42.70
30288;DHT22;17103;48.316;11.558;2023-01-29T16:42:29;3.60;42.60
30288;DHT22;17103;48.316;11.558;2023-01-29T16:45:00;3.60;43.40
30288;DHT22;17103;48.316;11.558;2023-01-29T16:47:36;3.60;42.90
30288;DHT22;17103;48.316;11.558;2023-01-29T16:50:23;3.60;42.70
30288;DHT22;17103;48.316;11.558;2023-01-29T16:52:56;3.70;42.70
30288;DHT22;17103;48.316;11.558;2023-01-29T16:55:24;3.70;42.60
30288;DHT22;17103;48.316;11.558;2023-01-29T16:57:54;3.70;42.60
30288;DHT22;17103;48.316;11.558;2023-01-29T17:00:29;3.70;42.60
30288;DHT22;17103;48.316;11.558;2023-01-29T17:03:02;3.70;42.70
30288;DHT22;17103;48.316;11.558;2023-01-29T17:05:29;3.80;42.60
30288;DHT22;17103;48.316;11.558;2023-01-29T17:07:57;3.80;42.50
30288;DHT22;17103;48.316;11.558;2023-01-29T17:10:25;3.80;42.50
30288;DHT22;17103;48.316;11.558;2023-01-29T17:13:00;3.80;42.60
30288;DHT22;17103;48.316;11.558;2023-01-29T17:17:58;3.70;42.50
30288;DHT22;17103;48.316;11.558;2023-01-29T17:20:26;3.70;42.60
30288;DHT22;17103;48.316;11.558;2023-01-29T17:22:52;3.80;42.90
30288;DHT22;17103;48.316;11.558;2023-01-29T17:25:17;3.70;42.80
30288;DHT22;17103;48.316;11.558;2023-01-29T17:27:44;3.80;42.70
30288;DHT22;17103;48.316;11.558;2023-01-29T17:30:18;3.80;42.60
30288;DHT22;17103;48.316;11.558;2023-01-29T17:32:45;3.80;42.80
30288;DHT22;17103;48.316;11.558;2023-01-29T17:35:14;3.80;42.80
30288;DHT22;17103;48.316;11.558;2023-01-29T17:37:40;3.80;42.90
30288;DHT22;17103;48.316;11.558;2023-01-29T17:40:35;3.80;43.10
30288;DHT22;17103;48.316;11.558;2023-01-29T17:43:02;3.80;43.00
30288;DHT22;17103;48.316;11.558;2023-01-29T17:45:28;3.70;43.10
30288;DHT22;17103;48.316;11.558;2023-01-29T17:47:53;3.70;43.00
30288;DHT22;17103;48.316;11.558;2023-01-29T17:50:26;3.60;43.10
30288;DHT22;17103;48.316;11.558;2023-01-29T17:52:52;3.60;43.10
30288;DHT22;17103;48.316;11.558;2023-01-29T17:55:18;3.60;43.20
30288;DHT22;17103;48.316;11.558;2023-01-29T17:57:44;3.60;43.40
30288;DHT22;17103;48.316;11.558;2023-01-29T18:00:18;3.60;43.20
30288;DHT22;17103;48.316;11.558;2023-01-29T18:02:44;3.60;43.50
30288;DHT22;17103;48.316;11.558;2023-01-29T18:05:15;3.60;43.40
30288;DHT22;17103;48.316;11.558;2023-01-29T18:07:43;3.60;43.80
30288;DHT22;17103;48.316;11.558;2023-01-29T18:10:17;3.60;43.70
30288;DHT22;17103;48.316;11.558;2023-01-29T18:12:43;3.60;43.40
30288;DHT22;17103;48.316;11.558;2023-01-29T18:15:11;3.60;43.20
30288;DHT22;17103;48.316;11.558;2023-01-29T18:17:37;3.60;43.70
30288;DHT22;17103;48.316;11.558;2023-01-29T18:20:24;3.60;43.50
30288;DHT22;17103;48.316;11.558;2023-01-29T18:22:51;3.50;43.50
30288;DHT22;17103;48.316;11.558;2023-01-29T18:25:17;3.50;43.60
30288;DHT22;17103;48.316;11.558;2023-01-29T18:27:43;3.50;43.60
30288;DHT22;17103;48.316;11.558;2023-01-29T18:30:10;3.50;43.50
30288;DHT22;17103;48.316;11.558;2023-01-29T18:32:37;3.50;43.70
30288;DHT22;17103;48.316;11.558;2023-01-29T18:35:03;3.40;43.90
30288;DHT22;17103;48.316;11.558;2023-01-29T18:37:31;3.40;43.60
30288;DHT22;17103;48.316;11.558;2023-01-29T18:39:57;3.50;43.70
30288;DHT22;17103;48.316;11.558;2023-01-29T18:42:23;3.50;43.80
30288;DHT22;17103;48.316;11.558;2023-01-29T18:44:50;3.50;44.00
30288;DHT22;17103;48.316;11.558;2023-01-29T18:47:16;3.50;44.20
30288;DHT22;17103;48.316;11.558;2023-01-29T18:49:43;3.50;43.90
30288;DHT22;17103;48.316;11.558;2023-01-29T18:52:09;3.50;43.80
30288;DHT22;17103;48.316;11.558;2023-01-29T18:54:35;3.50;44.30
30288;DHT22;17103;48.316;11.558;2023-01-29T18:57:01;3.40;44.30
30288;DHT22;17103;48.316;11.558;2023-01-29T18:59:27;3.40;44.10
30288;DHT22;17103;48.316;11.558;2023-01-29T19:01:54;3.40;44.20
30288;DHT22;17103;48.316;11.558;2023-01-29T19:04:21;3.40;44.00
30288;DHT22;17103;48.316;11.558;2023-01-29T19:06:48;3.50;44.40
30288;DHT22;17103;48.316;11.558;2023-01-29T19:09:14;3.50;44.60
30288;DHT22;17103;48.316;11.558;2023-01-29T19:11:40;3.50;44.70
30288;DHT22;17103;48.316;11.558;2023-01-29T19:14:06;3.50;44.70
30288;DHT22;17103;48.316;11.558;2023-01-29T19:16:32;3.50;44.70
30288;DHT22;17103;48.316;11.558;2023-01-29T19:18:59;3.50;44.70